Аэропорт: Толмачёво. Новосибирск

ICAO: UNNT

METAR:
2018/11/19 10:00
UNNT 191000Z 18003MPS 9000 BKN011 M12/M14 Q1033 R25/490253 R16/490150 NOSIG RMK QFE765/1020
METAR:
2018/11/19 08:21
TAF 
      AMD UNNT 190803Z 1908/2009 24003MPS 5000 -SN BR BKN010 
      TEMPO 1908/1918 1500 BR BKN005 
      BECMG 1918/1920 19005G10MPS BKN011CB 
      TEMPO 1920/2009 3100 -SHSN